Time;durP1;ratioP1;P1;durP2;ratioP2;P2;SDS_P1;SDS_P2;PMS_P1;PMS_P2;Temp;Humidity;BMP_temperature;BMP_pressure;BME280_temperature;BME280_humidity;BME280_pressure;Samples;Min_cycle;Max_cycle;Signal;HPM_P1;HPM_P2
2021/03/24 00:00:12;;;;;;;20.07;14.50;;;;;;;4.52;62.70;99093.25;5015820;28;20417;-76
2021/03/24 00:02:37;;;;;;;20.93;14.50;;;;;;;4.21;62.51;99037.91;5016256;28;20514;-76
2021/03/24 00:05:16;;;;;;;19.03;15.20;;;;;;;4.41;62.35;99064.72;5014957;28;20455;-75
2021/03/24 00:07:43;;;;;;;18.17;14.33;;;;;;;4.58;62.75;99086.63;5015945;28;20044;-75
2021/03/24 00:10:10;;;;;;;18.37;14.93;;;;;;;4.73;62.08;99095.56;5015857;28;20025;-75
2021/03/24 00:12:37;;;;;;;18.77;14.27;;;;;;;4.78;62.24;99093.31;5031161;28;20029;-75
2021/03/24 00:15:09;;;;;;;19.77;14.87;;;;;;;4.80;62.16;99096.59;5015670;28;20468;-76
2021/03/24 00:17:35;;;;;;;;;;;;;;;4.74;63.39;99097.19;5015126;28;20026;-76
2021/03/24 00:20:00;;;;;;;19.03;14.57;;;;;;;4.87;61.47;99100.25;5015710;28;19913;-75
2021/03/24 00:22:26;;;;;;;22.20;16.07;;;;;;;4.93;61.34;99090.97;5014593;28;20358;-75
2021/03/24 00:24:51;;;;;;;22.43;16.80;;;;;;;4.82;61.28;99085.97;5015707;28;20029;-75
2021/03/24 00:27:17;;;;;;;22.33;15.43;;;;;;;4.93;61.41;99102.25;5014444;28;20403;-76
2021/03/24 00:29:43;;;;;;;18.27;14.17;;;;;;;4.95;61.53;99089.81;5014717;28;20022;-76
2021/03/24 00:32:09;;;;;;;20.77;16.00;;;;;;;4.81;61.25;99082.53;5015540;28;20129;-75
2021/03/24 00:34:34;;;;;;;18.83;14.07;;;;;;;5.02;61.02;99083.00;5014321;28;20079;-76
2021/03/24 00:37:00;;;;;;;18.67;14.00;;;;;;;5.00;60.54;99084.97;5014743;28;20344;-76
2021/03/24 00:39:25;;;;;;;15.60;13.27;;;;;;;4.99;60.56;99098.19;5014332;28;20415;-76
2021/03/24 00:41:51;;;;;;;17.57;13.50;;;;;;;4.91;60.46;99091.09;5015307;28;20428;-76
2021/03/24 00:44:16;;;;;;;17.93;14.40;;;;;;;4.65;60.77;99046.63;5030594;28;20199;-75
2021/03/24 00:46:41;;;;;;;18.20;13.93;;;;;;;4.98;60.78;99097.38;5015296;28;20492;-76
2021/03/24 00:49:07;;;;;;;18.53;13.93;;;;;;;4.67;60.53;99038.63;5014087;28;20014;-75
2021/03/24 00:51:32;;;;;;;15.83;13.20;;;;;;;5.05;60.19;99095.78;5015277;28;20033;-76
2021/03/24 00:53:58;;;;;;;18.20;14.67;;;;;;;4.66;60.09;99029.16;5014387;28;20356;-76
2021/03/24 00:56:23;;;;;;;19.00;14.00;;;;;;;4.98;60.11;99101.78;5014554;28;20033;-76
2021/03/24 00:58:48;;;;;;;17.37;13.57;;;;;;;5.06;60.15;99091.38;5014995;28;20026;-75
2021/03/24 01:01:14;;;;;;;15.77;13.47;;;;;;;5.04;59.67;99088.91;5015046;28;20339;-76
2021/03/24 01:03:39;;;;;;;18.20;14.30;;;;;;;4.25;60.05;98981.78;5015244;28;20037;-76
2021/03/24 01:06:05;;;;;;;18.37;13.60;;;;;;;4.96;59.82;99088.03;5015009;28;20044;-76
2021/03/24 01:08:30;;;;;;;18.53;14.03;;;;;;;4.99;59.79;99091.16;5014972;28;20099;-76
2021/03/24 01:10:56;;;;;;;18.10;14.40;;;;;;;4.98;59.60;99094.75;5015085;28;20029;-75
2021/03/24 01:13:24;;;;;;;18.63;14.07;;;;;;;4.98;59.91;99092.13;5015605;28;20347;-75
2021/03/24 01:15:50;;;;;;;18.27;14.77;;;;;;;4.54;59.84;99020.72;5016733;28;20034;-76
2021/03/24 01:18:17;;;;;;;17.57;13.43;;;;;;;4.83;59.72;99059.66;5016293;28;20120;-76
2021/03/24 01:20:43;;;;;;;20.63;15.50;;;;;;;4.67;59.98;99043.88;5013984;28;20030;-76
2021/03/24 01:23:09;;;;;;;19.30;15.67;;;;;;;4.88;60.26;99074.91;5015076;28;20342;-76
2021/03/24 01:25:35;;;;;;;21.27;15.50;;;;;;;4.65;60.40;99045.81;5016077;28;20029;-76
2021/03/24 01:28:04;;;;;;;21.73;15.37;;;;;;;4.88;61.05;99095.81;5016918;28;20108;-76
2021/03/24 01:30:31;;;;;;;20.17;15.73;;;;;;;4.82;60.92;99073.72;5014578;28;20110;-76
2021/03/24 01:32:57;;;;;;;22.63;15.90;;;;;;;4.84;60.95;99074.38;5014785;28;20034;-75
2021/03/24 01:35:23;;;;;;;19.90;16.03;;;;;;;4.34;60.87;98988.69;5018943;28;20375;-76
2021/03/24 01:37:49;;;;;;;23.20;17.10;;;;;;;4.87;60.99;99081.94;5018724;28;20458;-75
2021/03/24 01:40:29;;;;;;;23.30;17.30;;;;;;;4.87;61.03;99076.69;5017501;28;20348;-76
2021/03/24 01:42:58;;;;;;;25.00;17.40;;;;;;;4.86;61.36;99079.47;5018590;28;20095;-75
2021/03/24 01:45:23;;;;;;;23.17;17.57;;;;;;;4.92;61.44;99092.75;5018556;28;20487;-76
2021/03/24 01:47:49;;;;;;;24.73;16.83;;;;;;;4.88;61.90;99093.22;5017471;28;20184;-75
2021/03/24 01:50:26;;;;;;;23.03;16.37;;;;;;;4.62;62.92;99072.25;5018348;28;20057;-76
2021/03/24 01:52:52;;;;;;;21.87;15.87;;;;;;;4.73;62.52;99085.09;5018627;28;20041;-75
2021/03/24 01:55:18;;;;;;;22.67;17.00;;;;;;;4.64;62.74;99096.47;5018394;28;20428;-75
2021/03/24 01:57:46;;;;;;;20.93;15.20;;;;;;;4.65;62.62;99085.03;5018308;28;20030;-75
2021/03/24 02:00:36;;;;;;;19.83;15.10;;;;;;;4.55;62.57;99076.47;5018159;28;20113;-75
2021/03/24 02:03:03;;;;;;;21.07;15.20;;;;;;;4.62;62.93;99061.81;5017951;28;20045;-76
2021/03/24 02:05:28;;;;;;;21.30;15.50;;;;;;;4.79;62.74;99069.63;5018130;28;20034;-76
2021/03/24 02:08:08;;;;;;;18.87;15.40;;;;;;;4.82;63.14;99068.50;5017014;28;20033;-76
2021/03/24 02:10:49;;;;;;;20.73;15.43;;;;;;;4.87;62.93;99061.00;5016930;28;20417;-75
2021/03/24 02:13:26;;;;;;;19.10;15.17;;;;;;;4.92;62.57;99077.06;5018179;28;20049;-76
2021/03/24 02:15:59;;;;;;;21.57;17.07;;;;;;;4.54;62.39;98999.81;5017841;28;20034;-75
2021/03/24 02:18:28;;;;;;;19.73;15.23;;;;;;;4.44;62.38;98986.81;5017909;28;20026;-76
2021/03/24 02:20:58;;;;;;;20.47;15.70;;;;;;;4.98;62.44;99067.78;5017797;28;20116;-75
2021/03/24 02:23:24;;;;;;;22.03;15.80;;;;;;;4.95;62.60;99058.44;5017802;28;20034;-76
2021/03/24 02:25:53;;;;;;;20.17;15.97;;;;;;;4.94;62.48;99069.06;5017893;28;20075;-76
2021/03/24 02:28:21;;;;;;;21.77;16.77;;;;;;;4.93;62.54;99067.41;5017724;28;20037;-75
2021/03/24 02:30:47;;;;;;;24.57;17.50;;;;;;;4.47;62.64;98991.78;5017673;28;20421;-75
2021/03/24 02:33:18;;;;;;;20.53;15.90;;;;;;;4.96;62.82;99064.50;5017455;28;20100;-75
2021/03/24 02:35:49;;;;;;;20.73;16.40;;;;;;;4.94;62.63;99058.59;5017755;28;20061;-75
2021/03/24 02:38:16;;;;;;;22.47;16.93;;;;;;;5.00;62.75;99066.66;5017597;28;20029;-75
2021/03/24 02:40:44;;;;;;;20.07;16.20;;;;;;;4.89;62.75;99058.22;5017551;28;20391;-75
2021/03/24 02:43:11;;;;;;;21.07;15.77;;;;;;;4.90;62.96;99071.16;5017567;28;20480;-75
2021/03/24 02:45:43;;;;;;;19.37;15.43;;;;;;;4.86;62.95;99059.38;5016241;28;20036;-75
2021/03/24 02:48:14;;;;;;;19.38;15.80;;;;;;;4.94;62.64;99059.41;5033280;28;20310;-75
2021/03/24 02:50:43;;;;;;;20.60;15.33;;;;;;;4.55;62.72;99003.25;5017307;28;20034;-76
2021/03/24 02:53:09;;;;;;;18.47;15.50;;;;;;;4.61;62.51;99005.25;5017461;28;20033;-76
2021/03/24 02:55:37;;;;;;;19.67;16.07;;;;;;;4.98;62.61;99058.13;5017165;28;20026;-75
2021/03/24 02:58:03;;;;;;;19.20;14.50;;;;;;;4.99;62.64;99057.16;5016167;28;20030;-75
2021/03/24 03:00:29;;;;;;;17.93;14.43;;;;;;;4.97;62.43;99060.91;5016936;28;20036;-76
2021/03/24 03:02:59;;;;;;;19.03;15.00;;;;;;;4.97;62.65;99053.06;5017075;28;20053;-75
2021/03/24 03:05:29;;;;;;;20.13;15.00;;;;;;;4.98;62.64;99057.31;5016967;28;20041;-76
2021/03/24 03:08:03;;;;;;;20.23;15.03;;;;;;;4.77;62.46;99018.44;5017235;28;20030;-76
2021/03/24 03:10:35;;;;;;;18.10;13.83;;;;;;;4.92;62.27;99053.50;5016977;28;20036;-75
2021/03/24 03:13:20;;;;;;;17.88;13.82;;;;;;;4.81;62.37;99045.09;5015867;28;20124;-75
2021/03/24 03:15:54;;;;;;;19.90;14.60;;;;;;;4.90;62.57;99067.72;5016900;28;20038;-75
2021/03/24 03:18:26;;;;;;;21.10;15.83;;;;;;;4.25;62.63;98970.50;5015719;28;20037;-75
2021/03/24 03:20:56;;;;;;;19.40;15.30;;;;;;;4.80;62.57;99080.91;5016826;28;20030;-76
2021/03/24 03:23:26;;;;;;;18.60;14.13;;;;;;;4.87;62.47;99074.09;5016725;28;20432;-75
2021/03/24 03:26:00;;;;;;;20.70;16.13;;;;;;;4.30;62.84;98992.59;5018833;28;20025;-76
2021/03/24 03:28:28;;;;;;;20.13;15.20;;;;;;;4.88;62.58;99078.34;5018239;28;20034;-76
2021/03/24 03:30:56;;;;;;;20.03;14.97;;;;;;;4.87;62.84;99079.31;5016847;28;20083;-75
2021/03/24 03:33:29;;;;;;;19.27;14.67;;;;;;;4.87;62.74;99083.72;5016551;28;20404;-76
2021/03/24 03:35:55;;;;;;;20.07;15.30;;;;;;;4.88;62.55;99086.19;5016568;28;20421;-75
2021/03/24 03:38:24;;;;;;;19.67;15.43;;;;;;;4.65;62.66;99064.13;5015583;28;20041;-76
2021/03/24 03:40:52;;;;;;;20.03;14.97;;;;;;;4.47;62.47;99025.75;5017049;28;20116;-75
2021/03/24 03:43:18;;;;;;;21.97;15.20;;;;;;;4.63;62.87;99053.81;5016283;28;20032;-75
2021/03/24 03:45:47;;;;;;;22.10;16.83;;;;;;;4.84;62.83;99086.66;5016490;28;20041;-76
2021/03/24 03:48:15;;;;;;;22.30;16.50;;;;;;;4.86;62.65;99088.13;5016415;28;20034;-75
2021/03/24 03:50:42;;;;;;;19.30;15.33;;;;;;;4.85;62.56;99089.09;5016173;28;20021;-75
2021/03/24 03:53:25;;;;;;;21.83;16.63;;;;;;;4.85;62.68;99083.88;5016007;28;20352;-76
2021/03/24 03:56:07;;;;;;;21.73;16.27;;;;;;;4.78;62.70;99077.63;5016149;28;20038;-76
2021/03/24 03:58:42;;;;;;;20.52;15.80;;;;;;;4.72;62.85;99081.66;5016002;28;20360;-75
2021/03/24 04:01:17;;;;;;;22.63;16.43;;;;;;;4.53;63.07;99066.16;5015763;28;20025;-76
2021/03/24 04:03:53;;;;;;;21.90;17.47;;;;;;;4.45;62.99;99039.91;5016687;28;20053;-75
2021/03/24 04:06:23;;;;;;;22.17;16.63;;;;;;;4.63;63.02;99072.09;5015817;28;20073;-75
2021/03/24 04:08:50;;;;;;;22.90;16.87;;;;;;;4.76;63.06;99088.22;5016301;28;20053;-76
2021/03/24 04:11:20;;;;;;;24.50;17.90;;;;;;;4.78;63.16;99086.28;5015816;28;20330;-75
2021/03/24 04:13:52;;;;;;;23.13;16.87;;;;;;;4.86;63.23;99084.69;5015851;28;20025;-75
2021/03/24 04:16:17;;;;;;;23.47;17.20;;;;;;;4.85;63.50;99096.13;5015485;28;20449;-75
2021/03/24 04:18:51;;;;;;;23.00;17.23;;;;;;;4.84;63.42;99095.31;5015790;28;20052;-75
2021/03/24 04:21:20;;;;;;;22.00;16.90;;;;;;;4.90;63.15;99102.53;5015587;28;20083;-75
2021/03/24 04:23:51;;;;;;;19.77;15.33;;;;;;;4.81;63.65;99098.22;5015684;28;20421;-75
2021/03/24 04:26:23;;;;;;;15.07;11.63;;;;;;;4.78;63.96;99106.38;5015502;28;20022;-75
2021/03/24 04:28:54;;;;;;;15.13;11.82;;;;;;;4.32;64.07;99037.69;5014563;28;20039;-75
2021/03/24 04:31:24;;;;;;;15.27;11.33;;;;;;;4.74;63.87;99112.88;5015434;28;20112;-75
2021/03/24 04:33:50;;;;;;;15.30;12.13;;;;;;;4.75;64.09;99110.13;5015542;28;20762;-75
2021/03/24 04:36:19;;;;;;;19.00;13.50;;;;;;;4.72;64.47;99105.19;5015392;28;20026;-75
2021/03/24 04:38:54;;;;;;;17.30;13.40;;;;;;;4.76;64.05;99109.16;5014298;28;20121;-75
2021/03/24 04:41:24;;;;;;;22.53;14.50;;;;;;;4.71;64.18;99116.63;5015274;28;20033;-75
2021/03/24 04:44:01;;;;;;;17.33;13.17;;;;;;;4.73;64.64;99116.47;5015372;28;20036;-75
2021/03/24 04:46:32;;;;;;;20.73;13.93;;;;;;;4.44;64.46;99070.47;5015414;28;20095;-75
2021/03/24 04:49:04;;;;;;;19.77;14.05;;;;;;;4.56;64.28;99099.00;5015532;28;20033;-75
2021/03/24 04:51:33;;;;;;;15.90;11.95;;;;;;;4.66;64.10;99120.66;5015340;28;20068;-75
2021/03/24 04:54:10;;;;;;;18.20;12.63;;;;;;;4.68;64.29;99121.34;5015215;28;20072;-75
2021/03/24 04:56:39;;;;;;;16.47;12.03;;;;;;;4.00;64.30;99027.78;5014051;28;20901;-74
2021/03/24 04:59:06;;;;;;;18.97;12.83;;;;;;;4.08;64.50;99064.41;5015009;28;20352;-74
2021/03/24 05:01:43;;;;;;;21.50;14.97;;;;;;;4.42;65.07;99122.06;5015079;28;20049;-74
2021/03/24 05:04:20;;;;;;;24.93;16.93;;;;;;;4.27;64.63;99101.81;5015265;28;20037;-74
2021/03/24 05:06:55;;;;;;;25.17;16.67;;;;;;;4.17;64.89;99103.69;5015053;28;20053;-75
2021/03/24 05:09:21;;;;;;;24.60;16.87;;;;;;;4.34;65.32;99129.81;5014430;28;20030;-75
2021/03/24 05:12:00;;;;;;;25.50;17.87;;;;;;;4.33;65.25;99136.03;5014193;28;20034;-75
2021/03/24 05:14:31;;;;;;;24.10;18.50;;;;;;;3.66;65.06;99024.94;5015047;28;20443;-75
2021/03/24 05:17:19;;;;;;;22.30;16.10;;;;;;;3.87;65.11;99066.47;5015026;28;20038;-75
2021/03/24 05:19:46;;;;;;;19.97;16.00;;;;;;;4.27;64.88;99127.97;5014811;28;20037;-75
2021/03/24 05:22:25;;;;;;;21.73;16.83;;;;;;;4.26;65.18;99129.75;5013965;28;20083;-75
2021/03/24 05:25:06;;;;;;;24.37;17.17;;;;;;;4.23;65.21;99129.22;5015006;28;20099;-75
2021/03/24 05:27:41;;;;;;;21.90;16.23;;;;;;;3.94;65.75;99104.09;5013694;28;20030;-75
2021/03/24 05:30:30;;;;;;;23.90;18.47;;;;;;;4.04;65.52;99109.28;5013771;28;20054;-75
2021/03/24 05:33:19;;;;;;;23.13;17.17;;;;;;;3.97;66.09;99113.44;5014563;28;20116;-75
2021/03/24 05:35:46;;;;;;;23.87;17.93;;;;;;;4.18;65.70;99134.06;5016207;28;20048;-76
2021/03/24 05:38:21;;;;;;;26.77;18.50;;;;;;;3.97;65.81;99114.25;5041184;23;20428;-75
2021/03/24 05:40:56;;;;;;;26.53;19.27;;;;;;;4.14;65.80;99144.81;5054648;28;20508;-76
2021/03/24 05:43:40;;;;;;;23.10;17.77;;;;;;;3.98;65.79;99117.69;5053395;28;20033;-76
2021/03/24 05:46:34;;;;;;;30.57;21.93;;;;;;;4.22;66.03;99141.47;5054578;28;20074;-76
2021/03/24 05:49:28;;;;;;;28.23;19.87;;;;;;;4.25;65.87;99142.97;5054890;28;20029;-76
2021/03/24 05:52:30;;;;;;;26.07;20.23;;;;;;;4.28;65.57;99134.81;5056196;28;20029;-75
2021/03/24 05:54:58;;;;;;;;;;;;;;;4.19;66.12;99141.75;5054760;28;20079;-76
2021/03/24 05:57:37;;;;;;;28.13;20.47;;;;;;;4.23;65.68;99134.44;5054291;28;19915;-75
2021/03/24 06:00:26;;;;;;;27.33;19.93;;;;;;;4.36;65.54;99150.59;5053420;28;20063;-77
2021/03/24 06:03:04;;;;;;;28.50;20.73;;;;;;;3.83;65.25;99079.00;5056451;28;20362;-77
2021/03/24 06:05:37;;;;;;;25.37;17.43;;;;;;;4.41;65.56;99159.63;5055689;28;20032;-77
2021/03/24 06:08:44;;;;;;;23.67;18.20;;;;;;;4.42;65.46;99150.81;5054707;28;20044;-76
2021/03/24 06:11:37;;;;;;;41.63;29.33;;;;;;;4.36;65.77;99164.47;5052527;28;20362;-76
2021/03/24 06:14:19;;;;;;;59.97;38.90;;;;;;;4.31;65.67;99158.88;5054287;28;20029;-76
2021/03/24 06:17:05;;;;;;;53.15;35.05;;;;;;;4.34;65.96;99163.81;5053119;28;20029;-75
2021/03/24 06:20:07;;;;;;;67.97;46.80;;;;;;;4.40;65.93;99157.97;5054659;28;20082;-75
2021/03/24 06:22:55;;;;;;;66.37;45.63;;;;;;;4.41;66.20;99166.66;5056492;28;20039;-75
2021/03/24 06:25:40;;;;;;;67.83;46.73;;;;;;;4.43;65.72;99168.13;5057551;28;20032;-75
2021/03/24 06:28:12;;;;;;;61.90;42.70;;;;;;;4.45;65.89;99165.38;5057595;28;20024;-74
2021/03/24 06:30:59;;;;;;;58.50;43.63;;;;;;;4.33;66.05;99148.28;5061918;23;20079;-74
2021/03/24 06:33:53;;;;;;;65.23;45.43;;;;;;;4.46;65.93;99167.88;5056287;28;20279;-75
2021/03/24 06:36:28;;;;;;;54.13;38.07;;;;;;;4.44;65.93;99167.16;5057645;28;20028;-75
2021/03/24 06:38:59;;;;;;;53.30;39.03;;;;;;;4.45;66.15;99173.22;5058155;28;20033;-76
2021/03/24 06:41:53;;;;;;;37.97;31.42;;;;;;;4.37;65.95;99179.19;5056607;28;20379;-75
2021/03/24 06:44:37;;;;;;;58.00;39.70;;;;;;;4.36;66.19;99187.19;5057388;28;20029;-76
2021/03/24 06:47:12;;;;;;;62.00;44.03;;;;;;;4.36;65.74;99192.41;5056322;28;20340;-76
2021/03/24 06:49:51;;;;;;;64.57;45.53;;;;;;;4.32;65.96;99204.94;5057064;28;20109;-77
2021/03/24 06:52:27;;;;;;;56.63;38.33;;;;;;;4.27;66.23;99207.16;5056735;28;20025;-75
2021/03/24 06:55:30;;;;;;;51.17;36.50;;;;;;;4.25;66.10;99216.94;5057306;28;20074;-75
2021/03/24 06:58:28;;;;;;;44.13;29.00;;;;;;;4.15;66.53;99237.06;4994698;28;20054;-75
2021/03/24 07:03:51;;;;;;;16.54;13.20;;;;;;;4.10;66.12;99234.91;5039515;23;20111;-75
2021/03/24 07:06:25;;;;;;;14.23;12.70;;;;;;;3.92;65.73;99228.78;5036103;28;20037;-75
2021/03/24 07:09:02;;;;;;;12.37;9.67;;;;;;;3.97;66.15;99252.69;5035963;28;20481;-75
2021/03/24 07:11:47;;;;;;;10.53;8.70;;;;;;;3.89;65.34;99241.31;5036424;28;20440;-75
2021/03/24 07:14:26;;;;;;;15.87;11.03;;;;;;;3.79;65.92;99270.06;5035692;28;20029;-76
2021/03/24 07:17:15;;;;;;;11.30;9.17;;;;;;;3.64;65.64;99248.78;5037311;28;20033;-75
2021/03/24 07:19:47;;;;;;;10.80;8.13;;;;;;;3.76;66.01;99289.44;5033854;28;20471;-76
2021/03/24 07:22:34;;;;;;;11.10;8.13;;;;;;;3.72;65.84;99297.72;5038930;28;20044;-76
2021/03/24 07:25:05;;;;;;;11.83;8.63;;;;;;;3.67;65.68;99300.72;5024260;23;20042;-76
2021/03/24 07:27:49;;;;;;;13.17;10.40;;;;;;;3.57;65.45;99297.28;5032710;28;20096;-75
2021/03/24 07:30:22;;;;;;;13.83;10.20;;;;;;;3.76;65.03;99323.41;5032667;28;20275;-76
2021/03/24 07:33:31;;;;;;;12.90;9.70;;;;;;;3.17;64.75;99259.16;5010360;28;20054;-76
2021/03/24 07:36:02;;;;;;;11.60;8.73;;;;;;;3.60;64.41;99317.06;5023934;28;20088;-75
2021/03/24 07:38:40;;;;;;;12.87;9.70;;;;;;;3.04;64.35;99263.00;5027716;28;20458;-76
2021/03/24 07:41:05;;;;;;;9.77;7.40;;;;;;;3.37;64.79;99325.19;5020196;23;20420;-76
2021/03/24 07:44:02;;;;;;;11.27;7.27;;;;;;;3.27;64.31;99329.59;5053729;28;20073;-77
2021/03/24 07:46:38;;;;;;;8.10;6.37;;;;;;;3.26;64.60;99324.50;5034528;28;20029;-77
2021/03/24 07:49:31;;;;;;;8.30;6.43;;;;;;;3.31;64.07;99340.56;5029442;28;20101;-78
2021/03/24 07:52:30;;;;;;;11.57;8.80;;;;;;;2.60;64.69;99267.72;5019748;28;20032;-76
2021/03/24 07:55:13;;;;;;;12.77;9.57;;;;;;;3.12;65.07;99347.41;5031642;28;20117;-76
2021/03/24 07:58:06;;;;;;;9.63;7.60;;;;;;;3.19;65.19;99358.97;5014239;28;20040;-77
2021/03/24 08:00:32;;;;;;;9.03;8.13;;;;;;;3.31;64.38;99358.84;5022504;28;20036;-77
2021/03/24 08:03:06;;;;;;;9.03;7.77;;;;;;;2.14;64.11;99177.91;5016604;28;20088;-78
2021/03/24 08:05:52;;;;;;;8.87;7.07;;;;;;;3.29;64.29;99368.59;5015782;28;20076;-77
2021/03/24 08:08:39;;;;;;;11.33;7.73;;;;;;;3.21;64.56;99366.66;5016002;28;20030;-77
2021/03/24 08:11:31;;;;;;;13.57;8.50;;;;;;;2.54;65.24;99284.72;5011221;28;20040;-77
2021/03/24 08:14:21;;;;;;;10.10;7.55;;;;;;;3.23;64.55;99380.38;5012740;28;20105;-77
2021/03/24 08:17:03;;;;;;;18.67;10.73;;;;;;;3.19;64.07;99389.44;5017264;28;20081;-77
2021/03/24 08:19:37;;;;;;;13.00;8.95;;;;;;;3.29;63.88;99390.28;5019786;28;20034;-76
2021/03/24 08:22:17;;;;;;;12.73;9.23;;;;;;;3.28;63.59;99382.59;5022694;28;20117;-75
2021/03/24 08:25:05;;;;;;;11.47;8.80;;;;;;;3.23;64.31;99388.22;5012780;28;20041;-75
2021/03/24 08:27:45;;;;;;;13.17;9.63;;;;;;;3.40;63.59;99407.59;5016151;28;20736;-73
2021/03/24 08:30:26;;;;;;;9.43;7.00;;;;;;;3.21;63.19;99358.00;5024643;28;20026;-76
2021/03/24 08:33:28;;;;;;;9.80;7.43;;;;;;;3.67;62.50;99402.53;5016924;28;20022;-78
2021/03/24 08:36:30;;;;;;;9.13;7.13;;;;;;;3.64;63.18;99413.25;5014349;28;20092;-75
2021/03/24 08:42:12;;;;;;;11.82;8.88;;;;;;;3.75;62.16;99407.09;5041751;22;20058;-76
2021/03/24 08:44:49;;;;;;;11.77;9.50;;;;;;;3.92;62.32;99429.91;4973073;28;20480;-77
2021/03/24 08:47:25;;;;;;;14.00;11.00;;;;;;;3.87;62.16;99421.66;4988549;28;20768;-76
2021/03/24 08:49:54;;;;;;;17.60;13.53;;;;;;;3.64;62.33;99365.44;5020038;28;20052;-78
2021/03/24 08:52:51;;;;;;;14.10;11.33;;;;;;;3.93;62.49;99435.94;5035826;28;20033;-78
2021/03/24 08:55:45;;;;;;;13.80;10.33;;;;;;;3.93;62.58;99439.38;5067035;23;20052;-78
2021/03/24 08:58:16;;;;;;;14.40;10.57;;;;;;;3.93;62.46;99441.16;5050430;23;20090;-78
2021/03/24 09:00:52;;;;;;;12.63;10.00;;;;;;;3.88;62.83;99449.41;5036928;28;20079;-77
2021/03/24 09:03:59;;;;;;;16.37;10.87;;;;;;;3.87;62.74;99450.38;5040990;28;20341;-79
2021/03/24 09:07:18;;;;;;;14.83;9.80;;;;;;;3.82;63.28;99449.97;5026192;28;20041;-77
2021/03/24 09:10:03;;;;;;;14.13;9.43;;;;;;;3.93;63.11;99454.22;5018244;23;20046;-77
2021/03/24 09:12:38;;;;;;;12.67;10.60;;;;;;;3.45;62.94;99367.09;5026848;28;20357;-78
2021/03/24 09:15:10;;;;;;;20.97;15.13;;;;;;;3.63;62.66;99395.09;5019042;28;20053;-77
2021/03/24 09:18:08;;;;;;;20.30;15.33;;;;;;;3.99;62.87;99467.56;5017375;28;20034;-77
2021/03/24 09:20:48;;;;;;;18.50;13.03;;;;;;;3.95;63.29;99466.19;5008612;28;20332;-76
2021/03/24 09:23:39;;;;;;;14.57;11.53;;;;;;;3.93;62.98;99472.50;5016430;28;20511;-76
2021/03/24 09:26:54;;;;;;;17.97;13.07;;;;;;;3.93;62.51;99472.50;5027075;23;20053;-75
2021/03/24 09:29:38;;;;;;;17.23;13.07;;;;;;;3.96;62.74;99469.63;5036066;28;20750;-74
2021/03/24 09:32:18;;;;;;;21.60;14.80;;;;;;;3.51;62.84;99397.03;5043176;28;20440;-74
2021/03/24 09:35:12;;;;;;;20.17;14.67;;;;;;;3.91;62.51;99458.78;5038253;28;20462;-73
2021/03/24 09:37:41;;;;;;;22.80;15.47;;;;;;;3.83;62.70;99455.06;5027459;28;20033;-73
2021/03/24 09:40:24;;;;;;;17.37;13.47;;;;;;;4.03;62.83;99476.78;5041161;28;20120;-73
2021/03/24 09:42:52;;;;;;;16.20;12.50;;;;;;;3.63;62.68;99414.22;5029492;28;20045;-76
2021/03/24 09:45:22;;;;;;;19.67;13.40;;;;;;;3.90;62.58;99452.72;5035365;28;20021;-75
2021/03/24 09:48:03;;;;;;;18.20;14.13;;;;;;;4.04;62.75;99467.97;5040177;28;20075;-76
2021/03/24 09:50:35;;;;;;;26.08;14.65;;;;;;;4.00;62.35;99463.16;5035537;28;20033;-75
2021/03/24 09:53:03;;;;;;;24.13;14.15;;;;;;;4.22;62.30;99498.63;5029431;28;20111;-75
2021/03/24 09:55:35;;;;;;;15.90;11.33;;;;;;;4.14;62.33;99481.84;5045240;28;20030;-76
2021/03/24 09:58:29;;;;;;;17.00;10.95;;;;;;;4.07;61.94;99459.03;5046153;23;21721;-76
2021/03/24 10:01:01;;;;;;;26.93;17.90;;;;;;;4.33;62.50;99493.25;5063083;28;20048;-75
2021/03/24 10:03:47;;;;;;;19.52;13.35;;;;;;;4.20;61.82;99450.91;5059291;28;20035;-77
2021/03/24 10:06:33;;;;;;;12.30;8.93;;;;;;;4.48;61.85;99491.88;5062654;22;20056;-72
2021/03/24 10:09:04;;;;;;;9.93;7.77;;;;;;;4.66;61.92;99492.81;5056180;28;20434;-73
2021/03/24 10:11:39;;;;;;;11.80;9.38;;;;;;;4.47;61.56;99451.84;5056539;28;20116;-73
2021/03/24 10:14:16;;;;;;;9.50;7.43;;;;;;;4.97;61.52;99490.78;5060676;28;20139;-74
2021/03/24 10:16:47;;;;;;;11.10;8.00;;;;;;;5.02;60.57;99483.31;5052019;28;20427;-76
2021/03/24 10:19:25;;;;;;;8.67;6.50;;;;;;;5.07;57.25;99503.81;5055516;28;20025;-73
2021/03/24 10:21:56;;;;;;;9.10;6.77;;;;;;;4.93;59.94;99505.13;5056791;28;20346;-76
2021/03/24 10:24:42;;;;;;;9.73;7.93;;;;;;;5.02;60.07;99519.13;5060774;23;20033;-75
2021/03/24 10:27:19;;;;;;;12.17;8.40;;;;;;;5.09;60.40;99521.03;5049157;28;20033;-74
2021/03/24 10:29:50;;;;;;;14.63;10.10;;;;;;;5.04;59.38;99528.50;5068170;28;20025;-73
2021/03/24 10:32:44;;;;;;;16.87;12.20;;;;;;;4.94;60.28;99522.47;5058085;28;20024;-73
2021/03/24 10:35:34;;;;;;;14.97;10.67;;;;;;;4.90;60.56;99526.34;5082010;22;20051;-71
2021/03/24 10:38:22;;;;;;;19.33;13.63;;;;;;;4.77;60.71;99536.28;5055349;28;20033;-72
2021/03/24 10:41:05;;;;;;;15.63;10.17;;;;;;;4.67;61.19;99532.84;5054198;28;20434;-73
2021/03/24 10:43:40;;;;;;;14.23;9.87;;;;;;;4.55;61.37;99545.25;5057440;28;20086;-72
2021/03/24 10:46:30;;;;;;;17.70;12.90;;;;;;;4.46;61.52;99530.41;5053915;28;20351;-72
2021/03/24 10:49:15;;;;;;;17.90;11.63;;;;;;;4.27;61.73;99510.31;5058086;28;20033;-71
2021/03/24 10:51:59;;;;;;;16.00;10.90;;;;;;;4.17;61.32;99526.97;5056082;28;20041;-72
2021/03/24 10:54:28;;;;;;;14.90;11.80;;;;;;;4.19;61.72;99527.66;5056003;28;20060;-73
2021/03/24 10:57:24;;;;;;;18.13;12.57;;;;;;;3.95;62.54;99467.97;5052375;28;20108;-72
2021/03/24 11:00:03;;;;;;;17.67;13.00;;;;;;;4.39;61.74;99532.72;5058692;28;20069;-74
2021/03/24 11:02:48;;;;;;;22.10;14.10;;;;;;;3.95;62.34;99496.72;5072876;28;20029;-73
2021/03/24 11:05:27;;;;;;;21.37;13.63;;;;;;;4.48;62.60;99525.88;5009654;22;20056;-73
2021/03/24 11:08:11;;;;;;;17.23;11.97;;;;;;;4.88;61.53;99523.03;4992993;28;20049;-75
2021/03/24 11:11:02;;;;;;;16.10;11.97;;;;;;;5.30;60.81;99527.88;5047829;23;20109;-73
2021/03/24 11:13:34;;;;;;;14.70;9.97;;;;;;;5.58;59.84;99516.41;5050481;28;20112;-73
2021/03/24 11:16:19;;;;;;;18.67;12.57;;;;;;;5.58;59.71;99485.00;5035465;28;20025;-74
2021/03/24 11:18:49;;;;;;;15.57;10.17;;;;;;;5.76;59.24;99477.16;5034736;28;20040;-73
2021/03/24 11:21:27;;;;;;;12.00;9.20;;;;;;;6.11;58.34;99502.59;5034634;28;20040;-71
2021/03/24 11:24:15;;;;;;;13.73;10.33;;;;;;;6.61;56.97;99505.44;5033610;28;20086;-74
2021/03/24 11:26:48;;;;;;;13.50;9.03;;;;;;;6.99;57.65;99485.84;5037956;28;20029;-74
2021/03/24 11:29:21;;;;;;;10.57;7.83;;;;;;;7.16;57.16;99464.91;5028984;28;20029;-78
2021/03/24 11:32:22;;;;;;;11.17;8.67;;;;;;;7.79;55.68;99491.56;5034563;28;20036;-76
2021/03/24 11:35:15;;;;;;;12.40;8.00;;;;;;;7.58;55.17;99431.59;5031286;28;20029;-77
2021/03/24 11:37:41;;;;;;;13.37;9.67;;;;;;;8.17;54.87;99489.31;5027569;28;20059;-88
2021/03/24 11:40:24;;;;;;;10.87;8.67;;;;;;;8.00;54.32;99421.94;5046003;28;20038;-89
2021/03/24 11:43:02;;;;;;;10.77;7.53;;;;;;;8.84;53.63;99489.97;5030097;28;20432;-75
2021/03/24 11:45:30;;;;;;;6.13;4.80;;;;;;;8.87;52.61;99485.19;5033996;28;20032;-75
2021/03/24 11:48:27;;;;;;;5.30;4.80;;;;;;;8.44;51.49;99423.25;5043335;28;20033;-76
2021/03/24 11:51:03;;;;;;;6.00;4.72;;;;;;;8.86;49.98;99490.63;5023328;28;20113;-75
2021/03/24 11:53:45;;;;;;;5.03;4.53;;;;;;;8.93;51.82;99477.63;5025469;28;20025;-74
2021/03/24 11:56:25;;;;;;;5.97;4.82;;;;;;;8.96;51.30;99429.88;5030814;28;20025;-75
2021/03/24 11:58:53;;;;;;;5.13;4.20;;;;;;;9.30;50.34;99477.00;5030273;28;20034;-77
2021/03/24 12:01:24;;;;;;;4.20;3.60;;;;;;;9.26;49.11;99471.25;5048268;28;20033;-80
2021/03/24 12:04:19;;;;;;;4.78;4.22;;;;;;;9.07;49.72;99474.28;5032788;28;20054;-78
2021/03/24 12:06:49;;;;;;;4.78;3.60;;;;;;;8.88;50.69;99475.47;5032065;28;20049;-75
2021/03/24 12:09:21;;;;;;;4.13;3.72;;;;;;;8.86;50.00;99457.22;5031130;28;20034;-77
2021/03/24 12:11:46;;;;;;;4.28;3.58;;;;;;;8.96;50.33;99472.03;5029963;28;20080;-79
2021/03/24 12:14:24;;;;;;;4.35;3.75;;;;;;;9.11;50.22;99470.31;5022651;28;20037;-75
2021/03/24 12:16:56;;;;;;;5.85;4.38;;;;;;;9.18;49.93;99460.75;5025879;28;20099;-79